Time;durP1;ratioP1;P1;durP2;ratioP2;P2;SDS_P1;SDS_P2;PMS_P1;PMS_P2;Temp;Humidity;BMP_temperature;BMP_pressure;BME280_temperature;BME280_humidity;BME280_pressure;Samples;Min_cycle;Max_cycle;Signal;HPM_P1;HPM_P2
2023/05/06 00:01:14;;;;;;;19.73;11.82;;;;;;;;;;4951445;28;25149;-80
2023/05/06 00:03:40;;;;;;;17.85;10.63;;;;;;;;;;4951213;28;25066;-79
2023/05/06 00:06:07;;;;;;;15.68;10.57;;;;;;;;;;4950329;28;25075;-80
2023/05/06 00:08:33;;;;;;;18.40;10.80;;;;;;;;;;4951292;28;25152;-77
2023/05/06 00:10:59;;;;;;;17.00;11.75;;;;;;;;;;4947674;28;25082;-79
2023/05/06 00:13:25;;;;;;;22.20;11.85;;;;;;;;;;4950072;28;25076;-80
2023/05/06 00:15:51;;;;;;;18.60;11.32;;;;;;;;;;4953992;28;25064;-80
2023/05/06 00:18:17;;;;;;;18.25;12.20;;;;;;;;;;4950850;28;25136;-80
2023/05/06 00:20:43;;;;;;;18.17;12.30;;;;;;;;;;4955482;28;25072;-79
2023/05/06 00:23:09;;;;;;;23.52;13.30;;;;;;;;;;4955789;28;25268;-80
2023/05/06 00:25:35;;;;;;;20.25;12.05;;;;;;;;;;4963082;28;25076;-79
2023/05/06 00:28:01;;;;;;;22.08;14.05;;;;;;;;;;4956113;28;25079;-80
2023/05/06 00:30:27;;;;;;;18.90;12.43;;;;;;;;;;4955956;28;25061;-79
2023/05/06 00:32:55;;;;;;;23.88;13.27;;;;;;;;;;4959935;28;25135;-81
2023/05/06 00:35:22;;;;;;;23.35;13.45;;;;;;;;;;4963672;28;25069;-79
2023/05/06 00:37:56;;;;;;;21.92;14.25;;;;;;;;;;4966840;28;25167;-78
2023/05/06 00:40:22;;;;;;;23.00;14.32;;;;;;;;;;4954467;28;25124;-79
2023/05/06 00:42:48;;;;;;;24.45;15.57;;;;;;;;;;4949515;28;25152;-80
2023/05/06 00:45:13;;;;;;;27.45;15.35;;;;;;;;;;4949191;28;25054;-82
2023/05/06 00:47:39;;;;;;;28.63;16.98;;;;;;;;;;4950203;28;25104;-79
2023/05/06 00:50:06;;;;;;;28.48;16.20;;;;;;;;;;4961109;28;25075;-79
2023/05/06 00:52:32;;;;;;;23.83;14.40;;;;;;;;;;4952837;28;25061;-80
2023/05/06 00:54:58;;;;;;;24.95;15.73;;;;;;;;;;4950828;28;25052;-79
2023/05/06 00:57:24;;;;;;;26.77;16.00;;;;;;;;;;4950761;28;25055;-78
2023/05/06 00:59:50;;;;;;;24.67;15.50;;;;;;;;;;4950533;28;25063;-78
2023/05/06 01:02:16;;;;;;;27.63;15.45;;;;;;;;;;4950857;28;25125;-80
2023/05/06 01:04:42;;;;;;;28.60;17.00;;;;;;;;;;4964985;28;25084;-79
2023/05/06 01:07:16;;;;;;;25.33;15.43;;;;;;;;;;4954967;28;25169;-81
2023/05/06 01:09:46;;;;;;;26.55;16.10;;;;;;;;;;4963136;28;25172;-80
2023/05/06 01:12:33;;;;;;;30.50;16.77;;;;;;;;;;4962028;28;25088;-78
2023/05/06 01:15:05;;;;;;;26.17;15.75;;;;;;;;;;4948252;28;25053;-78
2023/05/06 01:17:33;;;;;;;31.08;17.00;;;;;;;;;;4950458;28;25055;-78
2023/05/06 01:20:00;;;;;;;27.60;14.35;;;;;;;;;;4950692;28;25121;-78
2023/05/06 01:22:28;;;;;;;28.63;16.17;;;;;;;;;;4956238;28;25084;-80
2023/05/06 01:24:54;;;;;;;23.20;14.68;;;;;;;;;;4949474;28;25098;-79
2023/05/06 01:27:21;;;;;;;31.45;17.60;;;;;;;;;;4947448;28;25062;-78
2023/05/06 01:29:47;;;;;;;25.30;16.08;;;;;;;;;;4949970;28;25110;-78
2023/05/06 01:32:20;;;;;;;29.20;16.08;;;;;;;;;;4949743;28;25044;-78
2023/05/06 01:34:52;;;;;;;27.63;17.60;;;;;;;;;;4950830;28;25068;-79
2023/05/06 01:37:24;;;;;;;30.52;17.05;;;;;;;;;;4949744;28;25047;-80
2023/05/06 01:39:53;;;;;;;24.23;16.08;;;;;;;;;;4952125;28;25069;-79
2023/05/06 01:42:20;;;;;;;29.02;16.80;;;;;;;;;;4946443;28;25063;-78
2023/05/06 01:44:48;;;;;;;34.50;18.27;;;;;;;;;;4952325;28;25071;-79
2023/05/06 01:47:15;;;;;;;31.45;17.60;;;;;;;;;;4962546;28;25086;-81
2023/05/06 01:49:41;;;;;;;28.00;16.88;;;;;;;;;;4962811;28;25102;-78
2023/05/06 01:52:07;;;;;;;30.58;17.75;;;;;;;;;;4960512;28;25075;-81
2023/05/06 01:54:33;;;;;;;32.78;18.20;;;;;;;;;;4955678;28;25051;-80
2023/05/06 01:56:59;;;;;;;30.13;17.15;;;;;;;;;;4957288;28;25113;-80
2023/05/06 01:59:25;;;;;;;28.67;17.33;;;;;;;;;;4956505;28;25151;-80
2023/05/06 02:01:51;;;;;;;28.88;16.95;;;;;;;;;;4957614;28;25064;-81
2023/05/06 02:04:17;;;;;;;34.30;20.48;;;;;;;;;;4958121;28;25069;-81
2023/05/06 02:06:43;;;;;;;32.28;17.30;;;;;;;;;;4956279;28;25088;-79
2023/05/06 02:09:09;;;;;;;40.30;21.02;;;;;;;;;;4960223;28;25076;-81
2023/05/06 02:11:35;;;;;;;36.67;18.83;;;;;;;;;;4951223;28;25054;-81
2023/05/06 02:14:01;;;;;;;35.35;18.48;;;;;;;;;;4957694;28;25071;-80
2023/05/06 02:16:27;;;;;;;30.55;17.95;;;;;;;;;;4961887;28;25083;-82
2023/05/06 02:18:54;;;;;;;30.33;18.70;;;;;;;;;;4959702;28;25096;-81
2023/05/06 02:21:20;;;;;;;32.90;18.85;;;;;;;;;;4946581;28;25067;-79
2023/05/06 02:23:46;;;;;;;29.15;17.90;;;;;;;;;;4960058;28;25081;-80
2023/05/06 02:26:12;;;;;;;31.92;17.90;;;;;;;;;;4953933;28;25127;-81
2023/05/06 02:28:38;;;;;;;35.10;19.30;;;;;;;;;;4962676;28;25048;-81
2023/05/06 02:31:04;;;;;;;29.88;18.42;;;;;;;;;;4964130;28;25099;-80
2023/05/06 02:33:30;;;;;;;31.42;17.48;;;;;;;;;;4987115;28;25088;-81
2023/05/06 02:35:56;;;;;;;39.83;21.20;;;;;;;;;;4958716;28;25090;-80
2023/05/06 02:38:22;;;;;;;36.08;20.75;;;;;;;;;;4950899;28;25065;-81
2023/05/06 02:40:48;;;;;;;33.00;19.23;;;;;;;;;;4960006;28;25070;-81
2023/05/06 02:43:14;;;;;;;37.60;21.00;;;;;;;;;;4948572;28;25067;-80
2023/05/06 02:45:40;;;;;;;36.20;20.52;;;;;;;;;;4964521;28;25142;-80
2023/05/06 02:48:06;;;;;;;32.78;19.05;;;;;;;;;;4961100;28;25077;-81
2023/05/06 02:50:32;;;;;;;35.50;20.90;;;;;;;;;;4949637;28;25053;-81
2023/05/06 02:52:58;;;;;;;30.52;19.08;;;;;;;;;;4962389;28;25096;-79
2023/05/06 02:55:24;;;;;;;33.53;19.90;;;;;;;;;;4955011;28;25060;-81
2023/05/06 02:57:50;;;;;;;36.55;20.88;;;;;;;;;;4959409;28;25063;-81
2023/05/06 03:00:16;;;;;;;29.67;18.85;;;;;;;;;;4959920;28;25053;-81
2023/05/06 03:02:43;;;;;;;35.67;20.63;;;;;;;;;;4958882;28;25112;-80
2023/05/06 03:05:09;;;;;;;31.27;18.58;;;;;;;;;;4964142;28;25069;-81
2023/05/06 03:07:35;;;;;;;32.10;18.73;;;;;;;;;;4983059;28;25085;-80
2023/05/06 03:10:02;;;;;;;33.42;17.83;;;;;;;;;;4965660;28;25056;-81
2023/05/06 03:12:27;;;;;;;37.97;20.02;;;;;;;;;;4980743;28;25066;-80
2023/05/06 03:14:53;;;;;;;31.00;19.63;;;;;;;;;;4956911;28;25091;-80
2023/05/06 03:17:19;;;;;;;30.90;18.48;;;;;;;;;;4958211;28;25060;-81
2023/05/06 03:19:45;;;;;;;32.53;19.05;;;;;;;;;;4954512;28;25118;-82
2023/05/06 03:22:11;;;;;;;37.10;20.15;;;;;;;;;;4958228;28;25143;-81
2023/05/06 03:24:37;;;;;;;34.42;19.10;;;;;;;;;;4962326;28;25089;-81
2023/05/06 03:27:03;;;;;;;35.83;20.42;;;;;;;;;;4958764;28;25138;-81
2023/05/06 03:29:29;;;;;;;29.42;18.38;;;;;;;;;;4950800;28;25075;-82
2023/05/06 03:31:56;;;;;;;32.10;18.67;;;;;;;;;;4953027;28;25073;-82
2023/05/06 03:34:22;;;;;;;33.88;18.95;;;;;;;;;;4947990;28;25071;-80
2023/05/06 03:36:47;;;;;;;29.45;18.25;;;;;;;;;;4957020;28;25062;-80
2023/05/06 03:39:13;;;;;;;34.03;18.85;;;;;;;;;;4961983;28;25069;-83
2023/05/06 03:41:40;;;;;;;32.58;18.70;;;;;;;;;;4962057;28;25069;-81
2023/05/06 03:44:06;;;;;;;30.50;18.48;;;;;;;;;;4959673;28;25097;-81
2023/05/06 03:46:32;;;;;;;28.17;18.23;;;;;;;;;;4957756;28;25071;-80
2023/05/06 03:48:59;;;;;;;29.95;18.65;;;;;;;;;;4959104;28;25072;-81
2023/05/06 03:51:26;;;;;;;32.65;19.75;;;;;;;;;;4960061;28;25153;-82
2023/05/06 03:53:52;;;;;;;35.05;19.67;;;;;;;;;;4956259;28;25072;-80
2023/05/06 03:56:20;;;;;;;27.10;18.02;;;;;;;;;;4956732;28;25067;-80
2023/05/06 03:58:46;;;;;;;30.02;17.63;;;;;;;;;;4954534;28;25143;-79
2023/05/06 04:01:12;;;;;;;30.90;17.75;;;;;;;;;;4960582;28;25170;-80
2023/05/06 04:03:38;;;;;;;28.55;18.33;;;;;;;;;;4952019;28;25153;-82
2023/05/06 04:06:05;;;;;;;32.10;17.95;;;;;;;;;;4953381;28;25095;-80
2023/05/06 04:08:31;;;;;;;31.00;18.65;;;;;;;;;;4948665;28;25080;-81
2023/05/06 04:10:57;;;;;;;31.00;18.63;;;;;;;;;;4951033;28;25169;-80
2023/05/06 04:13:23;;;;;;;30.88;18.00;;;;;;;;;;4952587;28;25122;-81
2023/05/06 04:15:49;;;;;;;27.40;17.40;;;;;;;;;;4960838;28;25127;-82
2023/05/06 04:18:17;;;;;;;28.67;18.30;;;;;;;;;;4950389;28;25100;-80
2023/05/06 04:20:46;;;;;;;29.77;18.38;;;;;;;;;;4954618;28;25051;-80
2023/05/06 04:23:13;;;;;;;31.02;18.55;;;;;;;;;;4956027;28;25135;-79
2023/05/06 04:25:41;;;;;;;25.63;16.75;;;;;;;;;;4970993;28;25103;-79
2023/05/06 04:28:07;;;;;;;33.65;17.60;;;;;;;;;;4963832;28;25074;-79
2023/05/06 04:30:33;;;;;;;31.30;17.10;;;;;;;;;;4964760;28;25075;-79
2023/05/06 04:32:59;;;;;;;29.23;17.17;;;;;;;;;;4952438;28;25088;-80
2023/05/06 04:35:25;;;;;;;29.27;17.70;;;;;;;;;;4953884;28;25068;-81
2023/05/06 04:37:52;;;;;;;32.58;16.92;;;;;;;;;;4955538;28;25148;-79
2023/05/06 04:40:18;;;;;;;28.38;16.20;;;;;;;;;;4955974;28;25118;-79
2023/05/06 04:42:44;;;;;;;32.38;16.92;;;;;;;;;;4963273;28;25108;-78
2023/05/06 04:45:10;;;;;;;37.15;19.05;;;;;;;;;;4963045;28;25013;-79
2023/05/06 04:47:36;;;;;;;30.85;17.48;;;;;;;;;;4967724;28;25074;-80
2023/05/06 04:50:03;;;;;;;33.47;17.08;;;;;;;;;;4956017;28;25064;-80
2023/05/06 04:52:29;;;;;;;30.20;17.52;;;;;;;;;;4956983;28;25077;-78
2023/05/06 04:54:55;;;;;;;32.15;18.05;;;;;;;;;;4957133;28;25086;-79
2023/05/06 04:57:21;;;;;;;30.50;17.52;;;;;;;;;;4958893;28;25091;-80
2023/05/06 04:59:47;;;;;;;26.88;16.48;;;;;;;;;;4956804;28;25147;-81
2023/05/06 05:02:13;;;;;;;30.65;17.20;;;;;;;;;;4952545;28;25056;-77
2023/05/06 05:04:39;;;;;;;27.50;16.67;;;;;;;;;;4959308;28;25076;-82
2023/05/06 05:07:06;;;;;;;27.30;16.88;;;;;;;;;;4962764;28;25067;-80
2023/05/06 05:09:33;;;;;;;30.83;16.85;;;;;;;;;;4960640;28;25114;-79
2023/05/06 05:12:00;;;;;;;27.20;17.27;;;;;;;;;;4961707;28;25145;-81
2023/05/06 05:14:26;;;;;;;25.92;15.20;;;;;;;;;;4962351;28;25049;-80
2023/05/06 05:16:52;;;;;;;25.80;14.43;;;;;;;;;;4964875;28;25054;-80
2023/05/06 05:19:18;;;;;;;25.55;15.30;;;;;;;;;;4951718;28;25111;-79
2023/05/06 05:21:44;;;;;;;27.15;14.98;;;;;;;;;;4955030;28;25076;-81
2023/05/06 05:24:10;;;;;;;27.83;15.65;;;;;;;;;;4954423;28;25106;-82
2023/05/06 05:26:36;;;;;;;30.55;16.30;;;;;;;;;;4962964;28;25104;-80
2023/05/06 05:29:02;;;;;;;29.48;15.27;;;;;;;;;;4960125;28;25072;-80
2023/05/06 05:31:30;;;;;;;26.05;16.35;;;;;;;;;;4965341;28;25085;-81
2023/05/06 05:33:56;;;;;;;27.13;15.40;;;;;;;;;;4962595;28;25106;-79
2023/05/06 05:36:22;;;;;;;23.42;14.88;;;;;;;;;;4971891;28;25076;-80
2023/05/06 05:38:48;;;;;;;23.05;14.65;;;;;;;;;;4969728;28;25045;-80
2023/05/06 05:41:14;;;;;;;29.15;15.95;;;;;;;;;;4965912;28;25071;-79
2023/05/06 05:43:40;;;;;;;23.45;14.85;;;;;;;;;;4959602;28;25073;-78
2023/05/06 05:46:06;;;;;;;25.35;13.93;;;;;;;;;;4959402;28;25060;-79
2023/05/06 05:48:32;;;;;;;21.73;14.32;;;;;;;;;;4956455;28;25066;-79
2023/05/06 05:50:58;;;;;;;22.70;13.35;;;;;;;;;;4958168;28;25063;-81
2023/05/06 05:53:24;;;;;;;21.90;13.15;;;;;;;;;;4965114;28;25078;-81
2023/05/06 05:55:50;;;;;;;22.80;13.88;;;;;;;;;;4960486;28;25129;-79
2023/05/06 05:58:16;;;;;;;28.85;15.65;;;;;;;;;;4958469;28;25117;-79
2023/05/06 06:00:42;;;;;;;23.73;13.88;;;;;;;;;;4955402;28;25073;-80
2023/05/06 06:03:08;;;;;;;27.95;14.35;;;;;;;;;;4959985;28;25066;-79
2023/05/06 06:05:34;;;;;;;25.00;14.25;;;;;;;;;;4952428;28;25067;-83
2023/05/06 06:08:00;;;;;;;25.67;14.73;;;;;;;;;;4949236;28;25069;-79
2023/05/06 06:10:26;;;;;;;23.10;15.05;;;;;;;;;;4953996;28;25177;-80
2023/05/06 06:12:52;;;;;;;25.73;14.77;;;;;;;;;;4954781;28;25069;-81
2023/05/06 06:15:18;;;;;;;23.52;15.10;;;;;;;;;;4964259;28;25044;-79
2023/05/06 06:17:44;;;;;;;27.35;15.35;;;;;;;;;;4950052;28;25051;-79
2023/05/06 06:20:10;;;;;;;24.52;16.08;;;;;;;;;;4956024;28;25082;-80
2023/05/06 06:22:36;;;;;;;30.55;15.63;;;;;;;;;;4957912;28;25060;-80
2023/05/06 06:25:02;;;;;;;27.77;15.77;;;;;;;;;;4960106;28;25104;-79
2023/05/06 06:27:28;;;;;;;27.33;16.55;;;;;;;;;;4952171;28;25147;-79
2023/05/06 06:29:54;;;;;;;22.90;14.32;;;;;;;;;;4950644;28;25069;-81
2023/05/06 06:32:20;;;;;;;25.10;14.40;;;;;;;;;;4948709;28;25138;-80
2023/05/06 06:34:46;;;;;;;22.13;14.60;;;;;;;;;;4951123;28;25111;-80
2023/05/06 06:37:12;;;;;;;26.38;14.80;;;;;;;;;;4953650;28;25151;-79
2023/05/06 06:39:38;;;;;;;25.13;14.77;;;;;;;;;;4957229;28;25054;-81
2023/05/06 06:42:05;;;;;;;25.98;15.48;;;;;;;;;;4948800;28;25052;-79
2023/05/06 06:44:32;;;;;;;29.27;14.93;;;;;;;;;;4950793;28;25061;-79
2023/05/06 06:46:58;;;;;;;23.08;13.73;;;;;;;;;;4949690;28;25097;-78
2023/05/06 06:49:24;;;;;;;24.20;13.55;;;;;;;;;;4949016;28;25101;-81
2023/05/06 06:51:51;;;;;;;21.67;14.20;;;;;;;;;;4950728;28;25047;-80
2023/05/06 06:54:17;;;;;;;21.45;13.65;;;;;;;;;;4948715;28;25072;-78
2023/05/06 06:56:43;;;;;;;24.83;13.13;;;;;;;;;;4961591;28;25141;-80
2023/05/06 06:59:09;;;;;;;20.15;12.82;;;;;;;;;;4955804;28;25087;-77
2023/05/06 07:01:35;;;;;;;17.60;11.73;;;;;;;;;;4950880;28;25043;-80
2023/05/06 07:04:01;;;;;;;21.85;12.95;;;;;;;;;;4951495;28;25081;-80
2023/05/06 07:06:27;;;;;;;19.65;12.90;;;;;;;;;;4950139;28;25121;-82
2023/05/06 07:08:53;;;;;;;20.52;12.43;;;;;;;;;;4951184;28;25063;-81
2023/05/06 07:11:19;;;;;;;21.60;13.82;;;;;;;;;;4947279;28;25058;-80
2023/05/06 07:13:44;;;;;;;19.65;12.15;;;;;;;;;;4948079;28;25097;-80
2023/05/06 07:16:10;;;;;;;23.00;12.65;;;;;;;;;;4949086;28;25067;-79
2023/05/06 07:18:36;;;;;;;21.77;13.20;;;;;;;;;;4951327;28;25078;-80
2023/05/06 07:21:02;;;;;;;23.65;12.40;;;;;;;;;;4950905;28;25085;-79
2023/05/06 07:23:28;;;;;;;20.80;13.95;;;;;;;;;;4948284;28;25063;-79
2023/05/06 07:25:54;;;;;;;27.33;15.00;;;;;;;;;;4948787;28;25062;-81
2023/05/06 07:28:20;;;;;;;22.88;13.82;;;;;;;;;;4946553;28;25175;-79
2023/05/06 07:30:47;;;;;;;26.30;14.57;;;;;;;;;;4949000;28;25101;-82
2023/05/06 07:33:13;;;;;;;19.42;13.18;;;;;;;;;;4950976;28;25163;-81
2023/05/06 07:35:39;;;;;;;16.80;12.27;;;;;;;;;;4948745;28;25098;-79
2023/05/06 07:38:05;;;;;;;22.50;13.20;;;;;;;;;;4949597;28;25087;-81
2023/05/06 07:40:31;;;;;;;26.13;14.07;;;;;;;;;;4963214;28;25151;-81
2023/05/06 07:42:57;;;;;;;27.10;14.02;;;;;;;;;;4951028;28;25050;-79
2023/05/06 07:45:24;;;;;;;27.42;14.82;;;;;;;;;;4969225;28;25050;-78
2023/05/06 07:47:50;;;;;;;26.08;15.13;;;;;;;;;;4951269;28;25058;-82
2023/05/06 07:50:16;;;;;;;28.17;13.75;;;;;;;;;;4954506;28;25068;-81
2023/05/06 07:52:42;;;;;;;27.80;15.32;;;;;;;;;;4953436;28;25075;-81
2023/05/06 07:55:08;;;;;;;27.15;14.70;;;;;;;;;;4949754;28;25086;-79
2023/05/06 07:57:35;;;;;;;26.60;15.07;;;;;;;;;;4949135;28;25062;-78
2023/05/06 08:00:01;;;;;;;26.52;15.43;;;;;;;;;;4950709;28;25067;-80
2023/05/06 08:02:27;;;;;;;25.30;13.88;;;;;;;;;;4956504;28;25098;-80
2023/05/06 08:04:52;;;;;;;32.13;15.38;;;;;;;;;;4955007;28;25091;-79
2023/05/06 08:07:19;;;;;;;26.35;14.45;;;;;;;;;;4957168;28;25078;-79
2023/05/06 08:09:45;;;;;;;25.80;13.60;;;;;;;;;;4976488;28;25126;-79
2023/05/06 08:12:11;;;;;;;23.48;14.57;;;;;;;;;;4955526;28;25086;-80
2023/05/06 08:14:37;;;;;;;25.80;13.95;;;;;;;;;;4972586;28;25112;-78
2023/05/06 08:17:03;;;;;;;23.15;14.32;;;;;;;;;;4964292;28;25056;-79
2023/05/06 08:19:29;;;;;;;29.52;14.77;;;;;;;;;;4973279;28;25068;-79
2023/05/06 08:21:55;;;;;;;29.90;15.23;;;;;;;;;;4964145;28;25095;-78
2023/05/06 08:24:21;;;;;;;28.38;14.40;;;;;;;;;;4958697;28;25111;-78
2023/05/06 08:26:47;;;;;;;30.00;14.02;;;;;;;;;;4954757;28;25111;-76
2023/05/06 08:29:13;;;;;;;24.23;13.88;;;;;;;;;;4956709;28;25078;-76
2023/05/06 08:31:39;;;;;;;29.35;14.95;;;;;;;;;;4968794;28;25176;-78
2023/05/06 08:34:05;;;;;;;26.83;15.05;;;;;;;;;;4954936;28;25090;-77
2023/05/06 08:36:31;;;;;;;24.30;15.15;;;;;;;;;;4955051;28;25092;-77
2023/05/06 08:38:57;;;;;;;26.45;15.27;;;;;;;;;;4954673;28;25077;-75
2023/05/06 08:41:24;;;;;;;25.00;15.20;;;;;;;;;;4954136;28;24740;-76
2023/05/06 08:43:50;;;;;;;27.05;15.27;;;;;;;;;;4957037;28;25073;-75
2023/05/06 08:46:17;;;;;;;22.85;14.43;;;;;;;;;;4953915;28;25060;-75
2023/05/06 08:48:43;;;;;;;23.70;13.93;;;;;;;;;;4954450;28;25052;-75
2023/05/06 08:51:15;;;;;;;23.15;12.98;;;;;;;;;;4953278;28;25077;-76
2023/05/06 08:53:41;;;;;;;;;;;;;;;;;;4950386;28;25124;-76
2023/05/06 08:56:07;;;;;;;21.58;10.75;;;;;;;;;;4952719;28;24067;-76
2023/05/06 08:58:34;;;;;;;19.80;10.95;;;;;;;;;;4951082;28;25086;-77
2023/05/06 09:01:02;;;;;;;25.55;11.35;;;;;;;;;;4966315;28;25068;-75
2023/05/06 09:03:28;;;;;;;20.58;11.43;;;;;;;;;;4956019;28;25074;-77
2023/05/06 09:05:55;;;;;;;21.75;11.65;;;;;;;;;;4956895;28;25078;-77
2023/05/06 09:08:21;;;;;;;19.60;10.40;;;;;;;;;;4958021;28;25048;-75
2023/05/06 09:10:47;;;;;;;21.42;12.50;;;;;;;;;;4960951;28;25050;-76
2023/05/06 09:13:13;;;;;;;19.52;11.63;;;;;;;;;;4945305;28;25067;-76
2023/05/06 09:15:40;;;;;;;26.63;12.18;;;;;;;;;;4956641;28;25090;-77
2023/05/06 09:18:07;;;;;;;24.33;12.38;;;;;;;;;;4960010;28;25125;-76
2023/05/06 09:20:39;;;;;;;31.67;14.93;;;;;;;;;;4954991;28;25088;-76
2023/05/06 09:23:07;;;;;;;22.95;12.73;;;;;;;;;;4951428;28;25068;-81
2023/05/06 09:25:33;;;;;;;21.73;13.23;;;;;;;;;;4952979;28;25144;-75
2023/05/06 09:28:06;;;;;;;21.38;11.38;;;;;;;;;;4954021;28;25074;-76
2023/05/06 09:30:32;;;;;;;15.20;8.50;;;;;;;;;;4952917;28;25113;-77
2023/05/06 09:32:58;;;;;;;19.80;9.35;;;;;;;;;;4956969;28;25088;-78
2023/05/06 09:35:30;;;;;;;14.30;8.65;;;;;;;;;;4956500;28;25048;-79
2023/05/06 09:37:56;;;;;;;14.75;8.65;;;;;;;;;;4960905;28;25131;-78
2023/05/06 09:40:24;;;;;;;18.25;8.95;;;;;;;;;;4956874;28;25171;-80
2023/05/06 09:42:51;;;;;;;13.90;8.52;;;;;;;;;;4958401;28;25146;-78
2023/05/06 09:45:17;;;;;;;15.25;7.60;;;;;;;;;;4960513;28;25077;-78
2023/05/06 09:47:43;;;;;;;7.97;5.93;;;;;;;;;;4956371;28;25066;-77
2023/05/06 09:50:10;;;;;;;9.50;5.72;;;;;;;;;;4955703;28;25102;-78
2023/05/06 09:52:36;;;;;;;12.93;7.25;;;;;;;;;;4963127;28;25046;-78
2023/05/06 09:55:03;;;;;;;11.52;7.20;;;;;;;;;;4957256;28;25050;-77
2023/05/06 09:57:30;;;;;;;10.88;5.95;;;21.40;99.90;;;;;;4953777;28;25099;-78
2023/05/06 09:59:57;;;;;;;12.27;6.95;;;;;;;;;;4959073;28;25074;-79
2023/05/06 10:02:23;;;;;;;16.65;7.47;;;;;;;;;;4959197;28;25059;-78
2023/05/06 10:04:49;;;;;;;12.63;7.00;;;;;;;;;;4955854;28;25068;-79
2023/05/06 10:07:17;;;;;;;12.13;6.95;;;;;;;;;;4961478;28;25146;-78
2023/05/06 10:09:43;;;;;;;14.15;6.00;;;;;;;;;;4959530;28;25054;-77
2023/05/06 10:12:09;;;;;;;11.30;5.72;;;;;;;;;;4960573;28;25071;-78
2023/05/06 10:14:36;;;;;;;10.10;5.88;;;;;;;;;;4959706;28;25088;-79
2023/05/06 10:17:06;;;;;;;12.80;6.50;;;;;;;;;;4969055;28;25086;-77
2023/05/06 10:19:33;;;;;;;10.73;7.10;;;;;;;;;;4965042;28;25087;-80
2023/05/06 10:22:07;;;;;;;16.63;7.85;;;;;;;;;;4960761;28;25090;-76
2023/05/06 10:24:36;;;;;;;14.18;6.45;;;;;;;;;;4951586;28;25053;-76
2023/05/06 10:27:04;;;;;;;11.45;6.43;;;;;;;;;;4965955;28;25063;-77
2023/05/06 10:29:31;;;;;;;12.40;5.75;;;;;;;;;;4960589;28;25086;-76
2023/05/06 10:31:59;;;;;;;9.02;5.28;;;;;;;;;;4955788;28;25248;-77
2023/05/06 10:34:25;;;;;;;12.32;6.07;;;;;;;;;;4952984;28;25108;-77
2023/05/06 10:36:52;;;;;;;9.70;5.88;;;;;;;;;;4949434;28;25084;-77
2023/05/06 10:39:19;;;;;;;10.05;5.78;;;;;;;;;;4948819;28;25108;-76
2023/05/06 10:41:47;;;;;;;9.45;5.93;;;;;;;;;;4958582;28;25066;-77
2023/05/06 10:44:12;;;;;;;9.40;5.03;;;;;;;;;;4957954;28;25070;-77
2023/05/06 10:47:05;;;;;;;9.65;5.95;;;;;;;;;;4953403;28;25177;-75
2023/05/06 10:49:30;;;;;;;9.32;6.13;;;;;;;;;;4952916;28;25087;-76
2023/05/06 10:52:10;;;;;;;7.57;5.00;;;;;;;;;;4962315;28;25073;-76
2023/05/06 10:54:48;;;;;;;10.95;5.55;;;;;;;;;;4962335;28;25061;-79
2023/05/06 10:57:14;;;;;;;9.05;5.25;;;;;;;;;;4953089;28;25078;-76
2023/05/06 10:59:45;;;;;;;10.27;5.45;;;;;;;;;;4949425;28;25094;-77
2023/05/06 11:02:11;;;;;;;9.10;5.07;;;;;;;;;;4958704;28;25146;-75
2023/05/06 11:04:38;;;;;;;8.45;4.78;;;;;;;;;;4947760;28;25068;-77
2023/05/06 11:07:11;;;;;;;11.75;5.43;;;;;;;;;;4948491;28;25103;-75
2023/05/06 11:09:56;;;;;;;10.55;5.63;;;;;;;;;;4948311;28;25101;-76
2023/05/06 11:12:22;;;;;;;11.68;5.57;;;;;;;;;;4948205;28;25022;-77
2023/05/06 11:14:48;;;;;;;10.23;4.90;;;;;;;;;;4962517;28;25062;-75
2023/05/06 11:17:31;;;;;;;7.82;4.45;;;;;;;;;;4955356;28;25087;-76
2023/05/06 11:19:57;;;;;;;;;;;;;;;;;;4945702;28;25140;-75
2023/05/06 11:22:39;;;;;;;12.23;5.40;;;;;;;;;;4948767;28;24191;-76
2023/05/06 11:25:06;;;;;;;8.75;4.60;;;;;;;;;;4946995;28;25135;-73
2023/05/06 11:27:32;;;;;;;9.80;5.05;;;;;;;;;;4949709;28;25096;-76
2023/05/06 11:29:58;;;;;;;10.45;5.78;;;;;;;;;;4959292;28;25166;-76
2023/05/06 11:32:24;;;;;;;9.60;5.15;;;;;;;;;;4946949;28;25087;-74
2023/05/06 11:34:53;;;;;;;8.25;5.07;;;;;;;;;;4951374;28;25148;-76
2023/05/06 11:37:26;;;;;;;10.18;5.00;;;;;;;;;;4952269;28;25082;-75
2023/05/06 11:39:52;;;;;;;10.73;5.65;;;;;;;;;;4952523;28;25079;-76
2023/05/06 11:42:25;;;;;;;10.10;5.50;;;;;;;;;;4960039;28;25094;-75
2023/05/06 11:44:53;;;;;;;13.38;5.35;;;;;;;;;;4955416;28;25060;-76
2023/05/06 11:47:21;;;;;;;9.30;5.93;;;;;;;;;;4960276;28;25069;-79
2023/05/06 11:49:50;;;;;;;11.85;4.35;;;;;;;;;;4953562;28;25084;-75
2023/05/06 11:52:19;;;;;;;7.30;4.57;;;;;;;;;;4954494;28;25088;-75
2023/05/06 11:54:45;;;;;;;6.70;4.22;;;;;;;;;;4950750;28;25142;-74
2023/05/06 11:57:12;;;;;;;9.55;4.80;;;;;;;;;;4954756;28;25169;-76
2023/05/06 11:59:38;;;;;;;9.20;4.22;;;;;;;;;;4950705;28;25061;-76
2023/05/06 12:02:05;;;;;;;8.60;4.60;;;;;;;;;;4954145;28;25075;-75
2023/05/06 12:04:38;;;;;;;7.65;4.40;;;;;;;;;;4960662;28;25052;-75
2023/05/06 12:07:06;;;;;;;7.57;4.80;;;;;;;;;;4959853;28;25078;-77
2023/05/06 12:09:33;;;;;;;8.10;5.03;;;;;;;;;;4954471;28;25063;-76
2023/05/06 12:11:59;;;;;;;7.43;4.68;;;;;;;;;;4959346;28;25053;-75
2023/05/06 12:14:26;;;;;;;9.38;4.68;;;;;;;;;;4961401;28;25146;-76
2023/05/06 12:16:52;;;;;;;10.43;4.55;;;;;;;;;;4959202;28;25098;-76
2023/05/06 12:19:18;;;;;;;8.10;4.93;;;;;;;;;;4957280;28;25074;-79
2023/05/06 12:21:45;;;;;;;17.33;4.82;;;;;;;;;;4957843;28;25111;-77
2023/05/06 12:24:11;;;;;;;9.57;4.85;;;;;;;;;;4957692;28;25064;-76
2023/05/06 12:26:44;;;;;;;10.52;5.07;;;;;;;;;;4953444;28;25080;-77
2023/05/06 12:29:11;;;;;;;9.43;4.65;;;;;;;;;;4953903;28;25074;-76
2023/05/06 12:31:37;;;;;;;5.68;4.25;;;;;;;;;;4958588;28;25050;-75
2023/05/06 12:34:03;;;;;;;7.00;4.13;;;;;;;;;;4968657;28;25129;-76
2023/05/06 12:36:31;;;;;;;7.78;4.35;;;;;;;;;;4956195;28;25067;-76
2023/05/06 12:39:00;;;;;;;5.30;3.90;;;21.90;99.90;;;;;;4948159;28;25059;-75
2023/05/06 12:41:39;;;;;;;7.53;4.07;;;;;;;;;;4949839;28;25049;-76
2023/05/06 12:44:24;;;;;;;5.35;3.65;;;;;;;;;;4948182;28;25048;-77
2023/05/06 12:46:54;;;;;;;5.38;3.95;;;;;;;;;;4949178;28;25106;-76
2023/05/06 12:49:20;;;;;;;7.18;4.55;;;;;;;;;;4951110;28;25068;-77
2023/05/06 12:51:46;;;;;;;6.22;4.38;;;;;;;;;;4952522;28;25069;-76
2023/05/06 12:54:30;;;;;;;8.30;4.93;;;;;;;;;;4951409;28;25072;-76
2023/05/06 12:56:56;;;;;;;6.18;4.32;;;;;;;;;;4952722;28;25102;-76
2023/05/06 12:59:25;;;;;;;8.93;5.03;;;;;;;;;;4950760;28;25072;-74
2023/05/06 13:01:51;;;;;;;5.95;3.60;;;;;;;;;;4949329;28;25062;-76
2023/05/06 13:04:17;;;;;;;5.35;3.90;;;;;;;;;;4953623;28;25150;-76
2023/05/06 13:06:43;;;;;;;5.38;3.53;;;;;;;;;;4955148;28;25070;-77
2023/05/06 13:09:09;;;;;;;7.43;3.90;;;;;;;;;;4949827;28;25059;-76
2023/05/06 13:11:35;;;;;;;4.95;3.67;;;;;;;;;;4948327;28;25052;-76
2023/05/06 13:14:01;;;;;;;4.93;3.40;;;;;;;;;;4948261;28;25128;-75
2023/05/06 13:16:29;;;;;;;8.65;4.20;;;;;;;;;;4949173;28;25213;-75
2023/05/06 13:18:55;;;;;;;7.15;3.95;;;;;;;;;;4961646;28;25089;-77
2023/05/06 13:21:21;;;;;;;5.95;3.25;;;;;;;;;;4947846;28;25101;-77
2023/05/06 13:23:47;;;;;;;4.15;2.85;;;;;;;;;;4949479;28;25055;-75
2023/05/06 13:26:17;;;;;;;5.65;3.22;;;;;;;;;;4958151;28;25051;-76
2023/05/06 13:28:43;;;;;;;4.53;3.08;;;;;;;;;;4964206;28;25078;-77
2023/05/06 13:31:09;;;;;;;4.57;2.28;;;;;;;;;;4949596;28;25081;-76
2023/05/06 13:33:35;;;;;;;4.43;1.92;;;;;;;;;;4953211;28;25076;-76
2023/05/06 13:36:01;;;;;;;1.83;1.73;;;;;;;;;;4952245;28;25073;-75
2023/05/06 13:38:28;;;;;;;5.78;2.55;;;;;;;;;;4947967;28;25059;-76
2023/05/06 13:40:54;;;;;;;6.32;2.60;;;;;;;;;;4948338;28;25162;-77
2023/05/06 13:43:21;;;;;;;6.15;2.35;;;;;;;;;;4947709;28;25070;-78
2023/05/06 13:45:47;;;;;;;5.22;2.33;;;;;;;;;;4949381;28;25121;-77
2023/05/06 13:48:13;;;;;;;4.18;2.13;;;;;;;;;;4947430;28;25075;-75
2023/05/06 13:50:42;;;;;;;5.25;1.65;;;;;;;;;;4947609;28;25048;-76
2023/05/06 13:53:08;;;;;;;3.63;1.83;;;;;;;;;;4948403;28;24804;-77
2023/05/06 13:55:35;;;;;;;6.00;1.45;;;;;;;;;;4961523;28;25176;-75
2023/05/06 13:58:00;;;;;;;6.00;1.60;;;;;;;;;;4948594;28;25138;-76
2023/05/06 14:00:26;;;;;;;3.55;1.50;;;;;;;;;;4950763;28;25067;-76
2023/05/06 14:02:52;;;;;;;2.45;1.45;;;;;;;;;;4948503;28;25153;-78
2023/05/06 14:05:18;;;;;;;1.63;1.15;;;;;;;;;;4947338;28;25077;-76
2023/05/06 14:07:44;;;;;;;2.80;1.35;;;;;;;;;;4948668;28;25056;-77
2023/05/06 14:10:10;;;;;;;3.50;1.73;;;;;;;;;;4949671;28;25154;-78
2023/05/06 14:12:36;;;;;;;6.00;2.13;;;;;;;;;;4948950;28;25034;-80
2023/05/06 14:15:05;;;;;;;2.47;1.55;;;;;;;;;;4949517;28;25102;-76
2023/05/06 14:17:30;;;;;;;4.05;1.90;;;;;;;;;;4951299;28;25082;-78
2023/05/06 14:19:56;;;;;;;5.28;1.90;;;;;;;;;;4950863;28;25055;-78
2023/05/06 14:22:22;;;;;;;2.78;1.52;;;;;;;;;;4967144;28;25078;-79